sensor_id;sensor_type;location;lat;lon;timestamp;P1;durP1;ratioP1;P2;durP2;ratioP2
44774;SDS011;31340;51.402;0.016;2023-04-24T00:02:19;67.03;;;37.15;;
44774;SDS011;31340;51.402;0.016;2023-04-24T00:04:46;73.03;;;38.83;;
44774;SDS011;31340;51.402;0.016;2023-04-24T00:07:16;62.33;;;37.35;;
44774;SDS011;31340;51.402;0.016;2023-04-24T00:09:43;59.10;;;34.53;;
44774;SDS011;31340;51.402;0.016;2023-04-24T00:12:11;62.67;;;35.17;;
44774;SDS011;31340;51.402;0.016;2023-04-24T00:14:39;64.88;;;35.83;;
44774;SDS011;31340;51.402;0.016;2023-04-24T00:17:07;64.15;;;36.22;;
44774;SDS011;31340;51.402;0.016;2023-04-24T00:19:34;60.25;;;35.40;;
44774;SDS011;31340;51.402;0.016;2023-04-24T00:22:03;64.47;;;34.50;;
44774;SDS011;31340;51.402;0.016;2023-04-24T00:24:30;60.65;;;35.00;;
44774;SDS011;31340;51.402;0.016;2023-04-24T00:26:58;62.67;;;36.00;;
44774;SDS011;31340;51.402;0.016;2023-04-24T00:29:28;59.55;;;32.58;;
44774;SDS011;31340;51.402;0.016;2023-04-24T00:31:55;60.40;;;33.95;;
44774;SDS011;31340;51.402;0.016;2023-04-24T00:34:23;54.83;;;33.10;;
44774;SDS011;31340;51.402;0.016;2023-04-24T00:36:51;60.60;;;34.22;;
44774;SDS011;31340;51.402;0.016;2023-04-24T00:39:19;61.50;;;33.83;;
44774;SDS011;31340;51.402;0.016;2023-04-24T00:41:47;56.35;;;34.05;;
44774;SDS011;31340;51.402;0.016;2023-04-24T00:44:15;54.78;;;32.38;;
44774;SDS011;31340;51.402;0.016;2023-04-24T00:46:42;59.78;;;34.17;;
44774;SDS011;31340;51.402;0.016;2023-04-24T00:49:10;53.40;;;31.05;;
44774;SDS011;31340;51.402;0.016;2023-04-24T00:51:39;52.65;;;31.98;;
44774;SDS011;31340;51.402;0.016;2023-04-24T00:54:07;54.42;;;31.27;;
44774;SDS011;31340;51.402;0.016;2023-04-24T00:56:35;61.33;;;34.60;;
44774;SDS011;31340;51.402;0.016;2023-04-24T00:59:03;61.15;;;33.67;;
44774;SDS011;31340;51.402;0.016;2023-04-24T01:01:31;61.35;;;34.85;;
44774;SDS011;31340;51.402;0.016;2023-04-24T01:03:59;55.17;;;31.42;;
44774;SDS011;31340;51.402;0.016;2023-04-24T01:06:28;57.63;;;32.83;;
44774;SDS011;31340;51.402;0.016;2023-04-24T01:08:58;55.58;;;31.95;;
44774;SDS011;31340;51.402;0.016;2023-04-24T01:11:29;56.78;;;33.25;;
44774;SDS011;31340;51.402;0.016;2023-04-24T01:13:57;54.83;;;32.00;;
44774;SDS011;31340;51.402;0.016;2023-04-24T01:16:25;50.83;;;31.15;;
44774;SDS011;31340;51.402;0.016;2023-04-24T01:18:53;55.10;;;31.20;;
44774;SDS011;31340;51.402;0.016;2023-04-24T01:21:21;55.25;;;32.13;;
44774;SDS011;31340;51.402;0.016;2023-04-24T01:23:54;53.67;;;30.58;;
44774;SDS011;31340;51.402;0.016;2023-04-24T01:26:23;50.50;;;30.30;;
44774;SDS011;31340;51.402;0.016;2023-04-24T01:28:52;49.08;;;28.27;;
44774;SDS011;31340;51.402;0.016;2023-04-24T01:31:20;51.90;;;30.55;;
44774;SDS011;31340;51.402;0.016;2023-04-24T01:33:48;50.90;;;30.08;;
44774;SDS011;31340;51.402;0.016;2023-04-24T01:36:17;52.65;;;30.77;;
44774;SDS011;31340;51.402;0.016;2023-04-24T01:38:46;52.88;;;31.05;;
44774;SDS011;31340;51.402;0.016;2023-04-24T01:41:13;53.10;;;31.27;;
44774;SDS011;31340;51.402;0.016;2023-04-24T01:43:41;56.47;;;30.45;;
44774;SDS011;31340;51.402;0.016;2023-04-24T01:46:09;52.38;;;30.95;;
44774;SDS011;31340;51.402;0.016;2023-04-24T01:48:36;51.63;;;30.65;;
44774;SDS011;31340;51.402;0.016;2023-04-24T01:51:04;48.42;;;29.10;;
44774;SDS011;31340;51.402;0.016;2023-04-24T01:53:31;53.20;;;31.40;;
44774;SDS011;31340;51.402;0.016;2023-04-24T01:55:59;51.72;;;30.77;;
44774;SDS011;31340;51.402;0.016;2023-04-24T01:58:27;50.95;;;31.02;;
44774;SDS011;31340;51.402;0.016;2023-04-24T02:00:56;53.97;;;31.90;;
44774;SDS011;31340;51.402;0.016;2023-04-24T02:03:26;59.47;;;32.83;;
44774;SDS011;31340;51.402;0.016;2023-04-24T02:05:56;52.97;;;30.67;;
44774;SDS011;31340;51.402;0.016;2023-04-24T02:08:24;52.30;;;30.52;;
44774;SDS011;31340;51.402;0.016;2023-04-24T02:10:51;60.95;;;32.00;;
44774;SDS011;31340;51.402;0.016;2023-04-24T02:13:19;50.55;;;30.20;;
44774;SDS011;31340;51.402;0.016;2023-04-24T02:15:47;51.05;;;29.77;;
44774;SDS011;31340;51.402;0.016;2023-04-24T02:18:14;50.10;;;29.63;;
44774;SDS011;31340;51.402;0.016;2023-04-24T02:20:42;52.88;;;31.15;;
44774;SDS011;31340;51.402;0.016;2023-04-24T02:23:10;55.95;;;31.65;;
44774;SDS011;31340;51.402;0.016;2023-04-24T02:25:38;60.47;;;33.50;;
44774;SDS011;31340;51.402;0.016;2023-04-24T02:28:05;58.30;;;32.17;;
44774;SDS011;31340;51.402;0.016;2023-04-24T02:30:33;55.92;;;31.17;;
44774;SDS011;31340;51.402;0.016;2023-04-24T02:33:01;48.03;;;27.25;;
44774;SDS011;31340;51.402;0.016;2023-04-24T02:35:29;52.75;;;29.88;;
44774;SDS011;31340;51.402;0.016;2023-04-24T02:37:57;52.55;;;29.95;;
44774;SDS011;31340;51.402;0.016;2023-04-24T02:40:25;58.63;;;31.98;;
44774;SDS011;31340;51.402;0.016;2023-04-24T02:42:52;52.00;;;29.02;;
44774;SDS011;31340;51.402;0.016;2023-04-24T02:45:20;53.38;;;30.45;;
44774;SDS011;31340;51.402;0.016;2023-04-24T02:47:48;54.17;;;30.30;;
44774;SDS011;31340;51.402;0.016;2023-04-24T02:50:16;53.92;;;30.20;;
44774;SDS011;31340;51.402;0.016;2023-04-24T02:52:43;59.08;;;31.35;;
44774;SDS011;31340;51.402;0.016;2023-04-24T02:55:12;51.17;;;29.15;;
44774;SDS011;31340;51.402;0.016;2023-04-24T02:57:40;53.67;;;29.30;;
44774;SDS011;31340;51.402;0.016;2023-04-24T03:00:08;55.28;;;30.05;;
44774;SDS011;31340;51.402;0.016;2023-04-24T03:02:36;51.50;;;30.40;;
44774;SDS011;31340;51.402;0.016;2023-04-24T03:05:04;53.55;;;29.92;;
44774;SDS011;31340;51.402;0.016;2023-04-24T03:07:32;53.13;;;29.77;;
44774;SDS011;31340;51.402;0.016;2023-04-24T03:10:00;45.45;;;27.60;;
44774;SDS011;31340;51.402;0.016;2023-04-24T03:12:27;52.15;;;29.98;;
44774;SDS011;31340;51.402;0.016;2023-04-24T03:14:55;51.70;;;28.83;;
44774;SDS011;31340;51.402;0.016;2023-04-24T03:17:23;45.85;;;27.33;;
44774;SDS011;31340;51.402;0.016;2023-04-24T03:19:51;46.78;;;26.90;;
44774;SDS011;31340;51.402;0.016;2023-04-24T03:22:19;56.00;;;30.08;;
44774;SDS011;31340;51.402;0.016;2023-04-24T03:24:46;45.95;;;26.75;;
44774;SDS011;31340;51.402;0.016;2023-04-24T03:27:20;41.22;;;24.40;;
44774;SDS011;31340;51.402;0.016;2023-04-24T03:29:57;49.40;;;29.27;;
44774;SDS011;31340;51.402;0.016;2023-04-24T03:32:33;48.70;;;27.20;;
44774;SDS011;31340;51.402;0.016;2023-04-24T03:35:01;48.60;;;27.33;;
44774;SDS011;31340;51.402;0.016;2023-04-24T03:37:31;45.60;;;26.73;;
44774;SDS011;31340;51.402;0.016;2023-04-24T03:40:12;43.65;;;25.30;;
44774;SDS011;31340;51.402;0.016;2023-04-24T03:42:40;46.90;;;26.92;;
44774;SDS011;31340;51.402;0.016;2023-04-24T03:45:08;47.20;;;27.90;;
44774;SDS011;31340;51.402;0.016;2023-04-24T03:47:40;49.08;;;27.95;;
44774;SDS011;31340;51.402;0.016;2023-04-24T03:50:08;47.20;;;27.30;;
44774;SDS011;31340;51.402;0.016;2023-04-24T03:52:40;47.05;;;27.85;;
44774;SDS011;31340;51.402;0.016;2023-04-24T03:55:09;55.92;;;28.90;;
44774;SDS011;31340;51.402;0.016;2023-04-24T03:57:44;47.22;;;26.40;;
44774;SDS011;31340;51.402;0.016;2023-04-24T04:00:19;44.58;;;26.38;;
44774;SDS011;31340;51.402;0.016;2023-04-24T04:02:55;46.60;;;27.52;;
44774;SDS011;31340;51.402;0.016;2023-04-24T04:05:23;43.85;;;27.35;;
44774;SDS011;31340;51.402;0.016;2023-04-24T04:07:50;48.53;;;27.50;;
44774;SDS011;31340;51.402;0.016;2023-04-24T04:10:18;50.58;;;28.55;;
44774;SDS011;31340;51.402;0.016;2023-04-24T04:12:46;41.35;;;24.95;;
44774;SDS011;31340;51.402;0.016;2023-04-24T04:15:13;43.92;;;27.45;;
44774;SDS011;31340;51.402;0.016;2023-04-24T04:17:41;44.05;;;26.73;;
44774;SDS011;31340;51.402;0.016;2023-04-24T04:20:09;47.40;;;25.92;;
44774;SDS011;31340;51.402;0.016;2023-04-24T04:22:38;43.53;;;25.27;;
44774;SDS011;31340;51.402;0.016;2023-04-24T04:25:10;42.60;;;26.38;;
44774;SDS011;31340;51.402;0.016;2023-04-24T04:27:38;48.22;;;25.95;;
44774;SDS011;31340;51.402;0.016;2023-04-24T04:30:10;44.78;;;26.05;;
44774;SDS011;31340;51.402;0.016;2023-04-24T04:32:46;42.80;;;25.23;;
44774;SDS011;31340;51.402;0.016;2023-04-24T04:35:14;41.28;;;24.50;;
44774;SDS011;31340;51.402;0.016;2023-04-24T04:37:42;41.80;;;24.52;;
44774;SDS011;31340;51.402;0.016;2023-04-24T04:40:42;42.13;;;25.42;;
44774;SDS011;31340;51.402;0.016;2023-04-24T04:43:12;44.33;;;24.85;;
44774;SDS011;31340;51.402;0.016;2023-04-24T04:45:49;46.63;;;25.88;;
44774;SDS011;31340;51.402;0.016;2023-04-24T04:48:53;44.40;;;24.63;;
44774;SDS011;31340;51.402;0.016;2023-04-24T04:51:21;48.65;;;27.42;;
44774;SDS011;31340;51.402;0.016;2023-04-24T04:53:49;39.75;;;24.35;;
44774;SDS011;31340;51.402;0.016;2023-04-24T04:56:17;39.42;;;23.15;;
44774;SDS011;31340;51.402;0.016;2023-04-24T04:58:45;42.22;;;23.17;;
44774;SDS011;31340;51.402;0.016;2023-04-24T05:01:15;42.08;;;24.70;;
44774;SDS011;31340;51.402;0.016;2023-04-24T05:03:46;39.70;;;25.13;;
44774;SDS011;31340;51.402;0.016;2023-04-24T05:06:16;51.20;;;27.60;;
44774;SDS011;31340;51.402;0.016;2023-04-24T05:08:45;44.20;;;24.08;;
44774;SDS011;31340;51.402;0.016;2023-04-24T05:11:28;44.47;;;25.67;;
44774;SDS011;31340;51.402;0.016;2023-04-24T05:13:58;43.88;;;25.77;;
44774;SDS011;31340;51.402;0.016;2023-04-24T05:16:34;50.40;;;28.00;;
44774;SDS011;31340;51.402;0.016;2023-04-24T05:19:05;46.97;;;27.77;;
44774;SDS011;31340;51.402;0.016;2023-04-24T05:21:37;50.65;;;28.13;;
44774;SDS011;31340;51.402;0.016;2023-04-24T05:24:07;45.17;;;26.20;;
44774;SDS011;31340;51.402;0.016;2023-04-24T05:26:53;47.72;;;27.33;;
44774;SDS011;31340;51.402;0.016;2023-04-24T05:29:25;50.58;;;28.13;;
44774;SDS011;31340;51.402;0.016;2023-04-24T05:31:57;46.97;;;27.55;;
44774;SDS011;31340;51.402;0.016;2023-04-24T05:34:28;46.97;;;26.35;;
44774;SDS011;31340;51.402;0.016;2023-04-24T05:36:57;51.50;;;27.30;;
44774;SDS011;31340;51.402;0.016;2023-04-24T05:39:25;47.85;;;27.05;;
44774;SDS011;31340;51.402;0.016;2023-04-24T05:41:54;49.33;;;27.80;;
44774;SDS011;31340;51.402;0.016;2023-04-24T05:44:24;40.08;;;24.60;;
44774;SDS011;31340;51.402;0.016;2023-04-24T05:46:52;44.67;;;26.48;;
44774;SDS011;31340;51.402;0.016;2023-04-24T05:49:22;44.17;;;25.55;;
44774;SDS011;31340;51.402;0.016;2023-04-24T05:51:50;43.22;;;25.60;;
44774;SDS011;31340;51.402;0.016;2023-04-24T05:54:18;47.83;;;26.80;;
44774;SDS011;31340;51.402;0.016;2023-04-24T05:56:46;41.50;;;24.75;;
44774;SDS011;31340;51.402;0.016;2023-04-24T05:59:20;44.78;;;25.42;;
44774;SDS011;31340;51.402;0.016;2023-04-24T06:01:48;40.58;;;24.80;;
44774;SDS011;31340;51.402;0.016;2023-04-24T06:04:19;42.85;;;25.17;;
44774;SDS011;31340;51.402;0.016;2023-04-24T06:06:48;42.00;;;24.48;;
44774;SDS011;31340;51.402;0.016;2023-04-24T06:09:22;42.72;;;24.38;;
44774;SDS011;31340;51.402;0.016;2023-04-24T06:11:50;38.60;;;22.75;;
44774;SDS011;31340;51.402;0.016;2023-04-24T06:14:24;45.00;;;23.95;;
44774;SDS011;31340;51.402;0.016;2023-04-24T06:17:12;38.60;;;22.45;;
44774;SDS011;31340;51.402;0.016;2023-04-24T06:19:41;42.95;;;23.00;;
44774;SDS011;31340;51.402;0.016;2023-04-24T06:22:09;46.40;;;22.80;;
44774;SDS011;31340;51.402;0.016;2023-04-24T06:24:37;36.83;;;22.80;;
44774;SDS011;31340;51.402;0.016;2023-04-24T06:27:06;38.92;;;23.17;;
44774;SDS011;31340;51.402;0.016;2023-04-24T06:29:35;44.50;;;25.67;;
44774;SDS011;31340;51.402;0.016;2023-04-24T06:32:03;42.42;;;24.30;;
44774;SDS011;31340;51.402;0.016;2023-04-24T06:34:32;35.08;;;19.52;;
44774;SDS011;31340;51.402;0.016;2023-04-24T06:37:01;27.60;;;13.90;;
44774;SDS011;31340;51.402;0.016;2023-04-24T06:39:29;21.88;;;12.05;;
44774;SDS011;31340;51.402;0.016;2023-04-24T06:41:57;20.15;;;8.50;;
44774;SDS011;31340;51.402;0.016;2023-04-24T06:44:25;19.58;;;8.95;;
44774;SDS011;31340;51.402;0.016;2023-04-24T06:46:52;20.35;;;8.93;;
44774;SDS011;31340;51.402;0.016;2023-04-24T06:49:20;15.80;;;7.63;;
44774;SDS011;31340;51.402;0.016;2023-04-24T06:51:47;17.42;;;6.05;;
44774;SDS011;31340;51.402;0.016;2023-04-24T06:54:15;14.00;;;5.57;;
44774;SDS011;31340;51.402;0.016;2023-04-24T06:56:42;18.08;;;5.85;;
44774;SDS011;31340;51.402;0.016;2023-04-24T06:59:12;17.08;;;5.75;;
44774;SDS011;31340;51.402;0.016;2023-04-24T07:01:40;20.45;;;6.32;;
44774;SDS011;31340;51.402;0.016;2023-04-24T07:04:07;16.05;;;6.32;;
44774;SDS011;31340;51.402;0.016;2023-04-24T07:06:35;11.98;;;4.05;;
44774;SDS011;31340;51.402;0.016;2023-04-24T07:09:04;17.05;;;4.60;;
44774;SDS011;31340;51.402;0.016;2023-04-24T07:11:31;10.70;;;3.85;;
44774;SDS011;31340;51.402;0.016;2023-04-24T07:13:59;9.00;;;3.58;;
44774;SDS011;31340;51.402;0.016;2023-04-24T07:16:27;9.55;;;3.45;;
44774;SDS011;31340;51.402;0.016;2023-04-24T07:18:55;13.15;;;3.78;;
44774;SDS011;31340;51.402;0.016;2023-04-24T07:21:22;12.50;;;3.15;;
44774;SDS011;31340;51.402;0.016;2023-04-24T07:23:50;11.00;;;3.85;;
44774;SDS011;31340;51.402;0.016;2023-04-24T07:26:18;9.73;;;4.70;;
44774;SDS011;31340;51.402;0.016;2023-04-24T07:28:46;15.68;;;4.55;;
44774;SDS011;31340;51.402;0.016;2023-04-24T07:31:14;15.77;;;4.97;;
44774;SDS011;31340;51.402;0.016;2023-04-24T07:33:41;12.13;;;4.05;;
44774;SDS011;31340;51.402;0.016;2023-04-24T07:36:09;11.57;;;4.50;;
44774;SDS011;31340;51.402;0.016;2023-04-24T07:38:42;11.57;;;5.03;;
44774;SDS011;31340;51.402;0.016;2023-04-24T07:41:10;17.65;;;5.40;;
44774;SDS011;31340;51.402;0.016;2023-04-24T07:43:37;12.02;;;5.38;;
44774;SDS011;31340;51.402;0.016;2023-04-24T07:46:05;13.43;;;5.32;;
44774;SDS011;31340;51.402;0.016;2023-04-24T07:48:35;13.32;;;4.68;;
44774;SDS011;31340;51.402;0.016;2023-04-24T07:51:03;10.75;;;4.75;;
44774;SDS011;31340;51.402;0.016;2023-04-24T07:53:30;14.25;;;4.60;;
44774;SDS011;31340;51.402;0.016;2023-04-24T07:55:58;11.00;;;4.03;;
44774;SDS011;31340;51.402;0.016;2023-04-24T07:58:26;15.57;;;4.70;;
44774;SDS011;31340;51.402;0.016;2023-04-24T08:00:53;12.68;;;3.92;;
44774;SDS011;31340;51.402;0.016;2023-04-24T08:03:21;9.23;;;3.85;;
44774;SDS011;31340;51.402;0.016;2023-04-24T08:05:49;12.30;;;4.50;;
44774;SDS011;31340;51.402;0.016;2023-04-24T08:08:20;12.15;;;4.30;;
44774;SDS011;31340;51.402;0.016;2023-04-24T08:10:49;11.77;;;3.83;;
44774;SDS011;31340;51.402;0.016;2023-04-24T08:13:16;14.63;;;4.40;;
44774;SDS011;31340;51.402;0.016;2023-04-24T08:15:44;16.05;;;4.15;;
44774;SDS011;31340;51.402;0.016;2023-04-24T08:18:12;7.43;;;3.28;;
44774;SDS011;31340;51.402;0.016;2023-04-24T08:20:41;14.18;;;3.90;;
44774;SDS011;31340;51.402;0.016;2023-04-24T08:23:09;11.10;;;4.03;;
44774;SDS011;31340;51.402;0.016;2023-04-24T08:25:36;18.30;;;4.00;;
44774;SDS011;31340;51.402;0.016;2023-04-24T08:28:05;9.27;;;3.33;;
44774;SDS011;31340;51.402;0.016;2023-04-24T08:30:35;17.13;;;4.30;;
44774;SDS011;31340;51.402;0.016;2023-04-24T08:33:03;15.55;;;4.43;;
44774;SDS011;31340;51.402;0.016;2023-04-24T08:35:30;12.43;;;4.32;;
44774;SDS011;31340;51.402;0.016;2023-04-24T08:37:58;11.43;;;3.55;;
44774;SDS011;31340;51.402;0.016;2023-04-24T08:40:27;15.68;;;3.80;;
44774;SDS011;31340;51.402;0.016;2023-04-24T08:42:57;9.80;;;3.00;;
44774;SDS011;31340;51.402;0.016;2023-04-24T08:45:26;11.82;;;3.53;;
44774;SDS011;31340;51.402;0.016;2023-04-24T08:47:54;13.23;;;4.07;;
44774;SDS011;31340;51.402;0.016;2023-04-24T08:50:22;14.65;;;4.10;;
44774;SDS011;31340;51.402;0.016;2023-04-24T08:52:50;16.30;;;3.90;;
44774;SDS011;31340;51.402;0.016;2023-04-24T08:55:20;12.65;;;3.28;;
44774;SDS011;31340;51.402;0.016;2023-04-24T08:57:49;9.52;;;3.88;;
44774;SDS011;31340;51.402;0.016;2023-04-24T09:02:50;11.82;;;4.18;;
44774;SDS011;31340;51.402;0.016;2023-04-24T09:05:19;8.23;;;3.80;;
44774;SDS011;31340;51.402;0.016;2023-04-24T09:07:57;12.95;;;7.38;;
44774;SDS011;31340;51.402;0.016;2023-04-24T09:10:28;11.03;;;3.73;;
44774;SDS011;31340;51.402;0.016;2023-04-24T09:12:57;10.68;;;4.35;;
44774;SDS011;31340;51.402;0.016;2023-04-24T09:15:28;12.88;;;4.70;;
44774;SDS011;31340;51.402;0.016;2023-04-24T09:17:56;14.82;;;4.82;;
44774;SDS011;31340;51.402;0.016;2023-04-24T09:20:24;10.48;;;5.18;;
44774;SDS011;31340;51.402;0.016;2023-04-24T09:22:54;12.20;;;5.70;;
44774;SDS011;31340;51.402;0.016;2023-04-24T09:25:32;15.90;;;5.10;;
44774;SDS011;31340;51.402;0.016;2023-04-24T09:28:03;15.05;;;4.95;;
44774;SDS011;31340;51.402;0.016;2023-04-24T09:30:32;12.38;;;5.40;;
44774;SDS011;31340;51.402;0.016;2023-04-24T09:33:14;12.05;;;5.03;;
44774;SDS011;31340;51.402;0.016;2023-04-24T09:35:43;14.48;;;5.07;;
44774;SDS011;31340;51.402;0.016;2023-04-24T09:38:16;10.10;;;4.60;;
44774;SDS011;31340;51.402;0.016;2023-04-24T09:40:44;14.57;;;5.07;;
44774;SDS011;31340;51.402;0.016;2023-04-24T09:43:12;14.70;;;4.90;;
44774;SDS011;31340;51.402;0.016;2023-04-24T09:45:39;14.13;;;5.65;;
44774;SDS011;31340;51.402;0.016;2023-04-24T09:48:10;12.82;;;4.85;;
44774;SDS011;31340;51.402;0.016;2023-04-24T09:50:38;11.90;;;4.57;;
44774;SDS011;31340;51.402;0.016;2023-04-24T09:53:05;8.55;;;4.63;;
44774;SDS011;31340;51.402;0.016;2023-04-24T09:55:39;14.00;;;4.60;;
44774;SDS011;31340;51.402;0.016;2023-04-24T09:58:11;13.38;;;5.30;;
44774;SDS011;31340;51.402;0.016;2023-04-24T10:00:39;8.82;;;4.70;;
44774;SDS011;31340;51.402;0.016;2023-04-24T10:03:07;9.88;;;4.90;;
44774;SDS011;31340;51.402;0.016;2023-04-24T10:05:35;9.13;;;4.53;;
44774;SDS011;31340;51.402;0.016;2023-04-24T10:08:05;12.80;;;5.53;;
44774;SDS011;31340;51.402;0.016;2023-04-24T10:10:34;8.70;;;4.72;;
44774;SDS011;31340;51.402;0.016;2023-04-24T10:13:09;9.38;;;5.25;;
44774;SDS011;31340;51.402;0.016;2023-04-24T10:15:38;11.77;;;5.00;;
44774;SDS011;31340;51.402;0.016;2023-04-24T10:18:08;11.00;;;5.77;;
44774;SDS011;31340;51.402;0.016;2023-04-24T10:20:38;10.18;;;5.63;;
44774;SDS011;31340;51.402;0.016;2023-04-24T10:23:07;15.32;;;5.28;;
44774;SDS011;31340;51.402;0.016;2023-04-24T10:25:35;13.27;;;5.47;;
44774;SDS011;31340;51.402;0.016;2023-04-24T10:28:04;11.40;;;4.95;;
44774;SDS011;31340;51.402;0.016;2023-04-24T10:30:34;10.32;;;5.00;;
44774;SDS011;31340;51.402;0.016;2023-04-24T10:33:02;16.83;;;5.75;;
44774;SDS011;31340;51.402;0.016;2023-04-24T10:35:32;13.60;;;5.47;;
44774;SDS011;31340;51.402;0.016;2023-04-24T10:38:05;13.98;;;5.35;;
44774;SDS011;31340;51.402;0.016;2023-04-24T10:40:36;14.98;;;5.53;;
44774;SDS011;31340;51.402;0.016;2023-04-24T10:43:04;11.63;;;5.35;;
44774;SDS011;31340;51.402;0.016;2023-04-24T10:45:35;14.57;;;5.65;;
44774;SDS011;31340;51.402;0.016;2023-04-24T10:50:46;13.63;;;5.03;;
44774;SDS011;31340;51.402;0.016;2023-04-24T10:53:16;11.57;;;5.28;;
44774;SDS011;31340;51.402;0.016;2023-04-24T10:55:48;9.43;;;5.32;;
44774;SDS011;31340;51.402;0.016;2023-04-24T10:58:21;10.40;;;4.95;;
44774;SDS011;31340;51.402;0.016;2023-04-24T11:00:58;9.95;;;5.20;;
44774;SDS011;31340;51.402;0.016;2023-04-24T11:03:27;14.98;;;5.65;;
44774;SDS011;31340;51.402;0.016;2023-04-24T11:08:29;15.68;;;5.50;;
44774;SDS011;31340;51.402;0.016;2023-04-24T11:11:00;11.85;;;4.85;;
44774;SDS011;31340;51.402;0.016;2023-04-24T11:14:00;15.48;;;5.88;;
44774;SDS011;31340;51.402;0.016;2023-04-24T11:16:30;13.18;;;5.20;;
44774;SDS011;31340;51.402;0.016;2023-04-24T11:21:47;14.05;;;5.38;;
44774;SDS011;31340;51.402;0.016;2023-04-24T11:24:29;15.20;;;6.28;;
44774;SDS011;31340;51.402;0.016;2023-04-24T11:27:18;17.63;;;6.47;;
44774;SDS011;31340;51.402;0.016;2023-04-24T11:32:18;12.68;;;5.50;;
44774;SDS011;31340;51.402;0.016;2023-04-24T11:34:56;15.15;;;6.00;;
44774;SDS011;31340;51.402;0.016;2023-04-24T11:37:26;10.70;;;5.32;;
44774;SDS011;31340;51.402;0.016;2023-04-24T11:39:57;16.27;;;6.70;;
44774;SDS011;31340;51.402;0.016;2023-04-24T11:42:25;15.32;;;6.03;;
44774;SDS011;31340;51.402;0.016;2023-04-24T11:44:53;11.05;;;6.10;;
44774;SDS011;31340;51.402;0.016;2023-04-24T11:47:30;14.82;;;5.88;;
44774;SDS011;31340;51.402;0.016;2023-04-24T11:50:01;12.32;;;6.28;;
44774;SDS011;31340;51.402;0.016;2023-04-24T11:52:30;15.95;;;6.22;;
44774;SDS011;31340;51.402;0.016;2023-04-24T11:54:59;12.20;;;5.90;;
44774;SDS011;31340;51.402;0.016;2023-04-24T11:57:27;15.13;;;5.72;;
44774;SDS011;31340;51.402;0.016;2023-04-24T12:00:00;14.70;;;5.65;;
44774;SDS011;31340;51.402;0.016;2023-04-24T12:02:38;11.07;;;4.95;;
44774;SDS011;31340;51.402;0.016;2023-04-24T12:05:07;8.55;;;4.85;;
44774;SDS011;31340;51.402;0.016;2023-04-24T12:07:42;11.73;;;5.40;;
44774;SDS011;31340;51.402;0.016;2023-04-24T12:10:10;16.25;;;5.65;;
44774;SDS011;31340;51.402;0.016;2023-04-24T12:12:37;13.07;;;5.35;;
44774;SDS011;31340;51.402;0.016;2023-04-24T12:15:08;18.30;;;5.75;;
44774;SDS011;31340;51.402;0.016;2023-04-24T12:17:36;15.75;;;6.28;;
44774;SDS011;31340;51.402;0.016;2023-04-24T12:20:09;13.02;;;5.80;;
44774;SDS011;31340;51.402;0.016;2023-04-24T12:22:52;13.95;;;5.68;;
44774;SDS011;31340;51.402;0.016;2023-04-24T12:25:26;12.95;;;5.68;;
44774;SDS011;31340;51.402;0.016;2023-04-24T12:30:32;10.55;;;5.60;;
44774;SDS011;31340;51.402;0.016;2023-04-24T12:33:02;11.50;;;5.70;;
44774;SDS011;31340;51.402;0.016;2023-04-24T12:35:32;14.00;;;5.95;;
44774;SDS011;31340;51.402;0.016;2023-04-24T12:38:07;11.65;;;5.53;;
44774;SDS011;31340;51.402;0.016;2023-04-24T12:40:36;12.95;;;5.90;;
44774;SDS011;31340;51.402;0.016;2023-04-24T12:43:22;8.70;;;5.30;;
44774;SDS011;31340;51.402;0.016;2023-04-24T12:45:49;10.20;;;5.32;;
44774;SDS011;31340;51.402;0.016;2023-04-24T12:48:17;12.35;;;5.97;;
44774;SDS011;31340;51.402;0.016;2023-04-24T12:50:44;11.02;;;5.75;;
44774;SDS011;31340;51.402;0.016;2023-04-24T12:53:13;8.48;;;5.18;;
44774;SDS011;31340;51.402;0.016;2023-04-24T12:55:43;12.88;;;4.97;;
44774;SDS011;31340;51.402;0.016;2023-04-24T12:58:12;10.98;;;5.20;;
44774;SDS011;31340;51.402;0.016;2023-04-24T13:00:39;9.15;;;4.55;;
44774;SDS011;31340;51.402;0.016;2023-04-24T13:03:10;10.27;;;4.93;;
44774;SDS011;31340;51.402;0.016;2023-04-24T13:05:39;12.38;;;5.53;;
44774;SDS011;31340;51.402;0.016;2023-04-24T13:08:07;10.80;;;5.53;;
44774;SDS011;31340;51.402;0.016;2023-04-24T13:10:34;10.00;;;6.00;;
44774;SDS011;31340;51.402;0.016;2023-04-24T13:13:02;10.95;;;5.75;;
44774;SDS011;31340;51.402;0.016;2023-04-24T13:15:30;14.93;;;6.65;;
44774;SDS011;31340;51.402;0.016;2023-04-24T13:17:58;11.23;;;5.88;;
44774;SDS011;31340;51.402;0.016;2023-04-24T13:20:26;10.65;;;5.85;;
44774;SDS011;31340;51.402;0.016;2023-04-24T13:22:53;10.73;;;5.65;;
44774;SDS011;31340;51.402;0.016;2023-04-24T13:25:23;9.75;;;5.45;;
44774;SDS011;31340;51.402;0.016;2023-04-24T13:27:51;11.35;;;5.20;;
44774;SDS011;31340;51.402;0.016;2023-04-24T13:30:19;11.90;;;5.78;;
44774;SDS011;31340;51.402;0.016;2023-04-24T13:32:46;9.80;;;4.78;;
44774;SDS011;31340;51.402;0.016;2023-04-24T13:35:15;12.27;;;6.35;;
44774;SDS011;31340;51.402;0.016;2023-04-24T13:37:42;9.70;;;5.35;;
44774;SDS011;31340;51.402;0.016;2023-04-24T13:40:10;9.93;;;5.00;;
44774;SDS011;31340;51.402;0.016;2023-04-24T13:42:38;8.73;;;4.82;;
44774;SDS011;31340;51.402;0.016;2023-04-24T13:45:07;10.27;;;5.72;;
44774;SDS011;31340;51.402;0.016;2023-04-24T13:47:50;11.70;;;5.03;;
44774;SDS011;31340;51.402;0.016;2023-04-24T13:50:19;7.15;;;4.80;;
44774;SDS011;31340;51.402;0.016;2023-04-24T13:52:47;6.70;;;4.70;;
44774;SDS011;31340;51.402;0.016;2023-04-24T13:55:14;7.15;;;5.53;;
44774;SDS011;31340;51.402;0.016;2023-04-24T13:57:42;10.57;;;4.75;;
44774;SDS011;31340;51.402;0.016;2023-04-24T14:00:10;10.82;;;5.55;;
44774;SDS011;31340;51.402;0.016;2023-04-24T14:02:38;8.75;;;5.28;;
44774;SDS011;31340;51.402;0.016;2023-04-24T14:05:06;8.43;;;6.00;;
44774;SDS011;31340;51.402;0.016;2023-04-24T14:07:34;8.10;;;4.40;;
44774;SDS011;31340;51.402;0.016;2023-04-24T14:10:02;9.75;;;5.53;;
44774;SDS011;31340;51.402;0.016;2023-04-24T14:12:29;6.07;;;4.45;;
44774;SDS011;31340;51.402;0.016;2023-04-24T14:14:57;8.77;;;4.70;;
44774;SDS011;31340;51.402;0.016;2023-04-24T14:17:25;11.30;;;5.00;;
44774;SDS011;31340;51.402;0.016;2023-04-24T14:19:52;9.63;;;5.25;;
44774;SDS011;31340;51.402;0.016;2023-04-24T14:22:23;12.25;;;5.40;;
44774;SDS011;31340;51.402;0.016;2023-04-24T14:24:50;7.60;;;5.07;;
44774;SDS011;31340;51.402;0.016;2023-04-24T14:27:18;7.90;;;4.90;;
44774;SDS011;31340;51.402;0.016;2023-04-24T14:29:45;6.28;;;4.57;;
44774;SDS011;31340;51.402;0.016;2023-04-24T14:32:15;10.82;;;5.20;;
44774;SDS011;31340;51.402;0.016;2023-04-24T14:34:42;10.73;;;4.87;;
44774;SDS011;31340;51.402;0.016;2023-04-24T14:37:10;9.23;;;4.95;;
44774;SDS011;31340;51.402;0.016;2023-04-24T14:39:37;6.47;;;3.95;;
44774;SDS011;31340;51.402;0.016;2023-04-24T14:42:05;7.45;;;4.40;;
44774;SDS011;31340;51.402;0.016;2023-04-24T14:44:32;8.32;;;4.53;;
44774;SDS011;31340;51.402;0.016;2023-04-24T14:47:00;10.43;;;4.40;;
44774;SDS011;31340;51.402;0.016;2023-04-24T14:49:28;11.93;;;4.95;;
44774;SDS011;31340;51.402;0.016;2023-04-24T14:51:55;8.45;;;4.57;;
44774;SDS011;31340;51.402;0.016;2023-04-24T14:54:23;8.20;;;4.30;;
44774;SDS011;31340;51.402;0.016;2023-04-24T14:56:50;8.30;;;4.22;;
44774;SDS011;31340;51.402;0.016;2023-04-24T14:59:18;9.23;;;4.70;;
44774;SDS011;31340;51.402;0.016;2023-04-24T15:01:47;7.28;;;4.55;;